createdAt,value
2017-07-30T00:00:04.942Z,22.10
2017-07-30T00:02:32.537Z,22.10
2017-07-30T00:05:00.070Z,22.10
2017-07-30T00:07:27.929Z,22.10
2017-07-30T00:09:55.594Z,22.10
2017-07-30T00:12:23.125Z,22.10
2017-07-30T00:14:50.851Z,22.10
2017-07-30T00:17:18.451Z,22.10
2017-07-30T00:19:46.007Z,22.10
2017-07-30T00:22:13.584Z,22.10
2017-07-30T00:24:41.161Z,22.10
2017-07-30T00:27:08.737Z,22.10
2017-07-30T00:29:36.266Z,22.10
2017-07-30T00:32:04.274Z,22.10
2017-07-30T00:34:31.813Z,22.00
2017-07-30T00:36:59.354Z,22.00
2017-07-30T00:39:26.949Z,22.00
2017-07-30T00:41:58.500Z,22.00
2017-07-30T00:44:26.046Z,22.10
2017-07-30T00:46:53.585Z,22.00
2017-07-30T00:49:21.282Z,22.00
2017-07-30T00:51:48.814Z,22.00
2017-07-30T00:54:16.392Z,22.00
2017-07-30T00:56:43.970Z,22.00
2017-07-30T00:59:11.549Z,22.00
2017-07-30T01:01:39.085Z,22.00
2017-07-30T01:04:06.661Z,22.00
2017-07-30T01:06:34.367Z,22.00
2017-07-30T01:09:02.126Z,21.90
2017-07-30T01:11:29.657Z,21.90
2017-07-30T01:13:57.202Z,21.90
2017-07-30T01:16:25.056Z,21.90
2017-07-30T01:18:52.589Z,21.90
2017-07-30T01:21:20.157Z,21.90
2017-07-30T01:23:47.873Z,21.90
2017-07-30T01:26:15.403Z,21.90
2017-07-30T01:28:42.945Z,21.90
2017-07-30T01:31:10.687Z,21.90
2017-07-30T01:33:38.218Z,21.90
2017-07-30T01:36:05.753Z,21.90
2017-07-30T01:38:33.446Z,21.90
2017-07-30T01:41:00.986Z,21.90
2017-07-30T01:43:28.821Z,21.90
2017-07-30T01:45:56.363Z,21.90
2017-07-30T01:48:23.906Z,21.90
2017-07-30T01:50:51.641Z,21.90
2017-07-30T01:53:19.210Z,21.90
2017-07-30T01:55:46.750Z,21.90
2017-07-30T01:58:14.794Z,21.90
2017-07-30T02:00:42.326Z,21.90
2017-07-30T02:03:09.865Z,21.90
2017-07-30T02:05:37.812Z,21.90
2017-07-30T02:08:05.344Z,21.90
2017-07-30T02:10:33.188Z,21.90
2017-07-30T02:13:01.521Z,21.90
2017-07-30T02:15:29.061Z,21.80
2017-07-30T02:17:56.778Z,21.90
2017-07-30T02:20:24.542Z,21.90
2017-07-30T02:22:52.096Z,21.90
2017-07-30T02:25:19.638Z,21.80
2017-07-30T02:27:52.527Z,21.90
2017-07-30T02:30:20.074Z,21.80
2017-07-30T02:32:47.618Z,21.80
2017-07-30T02:35:15.398Z,21.80
2017-07-30T02:37:43.330Z,21.80
2017-07-30T02:40:10.881Z,21.80
2017-07-30T02:42:39.180Z,21.80
2017-07-30T02:45:06.793Z,21.80
2017-07-30T02:47:35.105Z,21.80
2017-07-30T02:50:02.649Z,21.70
2017-07-30T02:52:30.383Z,21.80
2017-07-30T02:54:57.973Z,21.80
2017-07-30T02:57:26.338Z,21.70
2017-07-30T02:59:54.653Z,21.70
2017-07-30T03:02:22.818Z,21.70
2017-07-30T03:04:50.362Z,21.70
2017-07-30T03:07:18.773Z,21.70
2017-07-30T03:09:46.833Z,21.70
2017-07-30T03:12:14.374Z,21.70
2017-07-30T03:14:41.925Z,21.70
2017-07-30T03:17:10.273Z,21.60
2017-07-30T03:19:37.819Z,21.60
2017-07-30T03:22:05.403Z,21.60
2017-07-30T03:24:32.949Z,21.60
2017-07-30T03:27:00.594Z,21.60
2017-07-30T03:29:28.138Z,21.60
2017-07-30T03:31:56.054Z,21.50
2017-07-30T03:34:23.600Z,21.50
2017-07-30T03:36:51.149Z,21.50
2017-07-30T03:39:18.738Z,21.50
2017-07-30T03:41:46.290Z,21.40
2017-07-30T03:44:14.037Z,21.40
2017-07-30T03:46:41.587Z,21.50
2017-07-30T03:49:09.584Z,21.50
2017-07-30T03:51:37.130Z,21.40
2017-07-30T03:54:04.672Z,21.40
2017-07-30T03:56:32.322Z,21.40
2017-07-30T03:59:04.953Z,21.40
2017-07-30T04:01:32.542Z,21.40
2017-07-30T04:04:00.913Z,21.30
2017-07-30T04:06:29.222Z,21.30
2017-07-30T04:08:57.631Z,21.30
2017-07-30T04:11:25.178Z,21.30
2017-07-30T04:13:52.722Z,21.20
2017-07-30T04:16:20.386Z,21.20
2017-07-30T04:18:48.019Z,21.20
2017-07-30T04:21:16.391Z,21.20
2017-07-30T04:23:44.709Z,21.10
2017-07-30T04:26:12.247Z,21.10
2017-07-30T04:28:40.115Z,21.10
2017-07-30T04:31:07.676Z,21.10
2017-07-30T04:33:35.230Z,21.10
2017-07-30T04:36:03.714Z,21.00
2017-07-30T04:38:32.161Z,21.00
2017-07-30T04:40:59.706Z,21.00
2017-07-30T04:43:27.251Z,21.00
2017-07-30T04:45:54.912Z,21.00
2017-07-30T04:48:22.471Z,20.90
2017-07-30T04:50:50.064Z,20.90
2017-07-30T04:53:17.616Z,20.90
2017-07-30T04:55:45.291Z,20.90
2017-07-30T04:58:12.841Z,20.90
2017-07-30T05:00:40.734Z,20.90
2017-07-30T05:03:09.129Z,20.80
2017-07-30T05:05:37.478Z,20.80
2017-07-30T05:08:05.020Z,20.80
2017-07-30T05:10:33.397Z,20.80
2017-07-30T05:13:00.946Z,20.80
2017-07-30T05:15:28.492Z,20.90
2017-07-30T05:17:56.136Z,20.90
2017-07-30T05:20:23.680Z,21.00
2017-07-30T05:22:52.025Z,21.00
2017-07-30T05:25:19.582Z,20.90
2017-07-30T05:27:47.180Z,20.90
2017-07-30T05:30:15.486Z,21.00
2017-07-30T05:32:43.062Z,21.00
2017-07-30T05:35:10.609Z,21.00
2017-07-30T05:37:38.347Z,21.10
2017-07-30T05:40:11.822Z,21.20
2017-07-30T05:42:40.148Z,21.30
2017-07-30T05:45:07.694Z,21.20
2017-07-30T05:47:35.722Z,21.30
2017-07-30T05:50:03.273Z,21.40
2017-07-30T05:52:30.817Z,21.40
2017-07-30T05:54:58.698Z,21.60
2017-07-30T05:57:26.286Z,21.60
2017-07-30T05:59:53.836Z,21.60
2017-07-30T06:02:21.585Z,21.60
2017-07-30T06:04:49.124Z,21.60
2017-07-30T06:07:16.664Z,21.60
2017-07-30T06:09:44.253Z,21.70
2017-07-30T06:12:12.108Z,21.80
2017-07-30T06:14:39.649Z,21.90
2017-07-30T06:17:07.202Z,21.90
2017-07-30T06:19:34.797Z,21.90
2017-07-30T06:22:02.699Z,22.00
2017-07-30T06:24:30.240Z,22.00
2017-07-30T06:26:57.790Z,22.00
2017-07-30T06:29:25.512Z,22.10
2017-07-30T06:31:53.829Z,22.20
2017-07-30T06:34:21.421Z,22.20
2017-07-30T06:36:48.966Z,22.30
2017-07-30T06:39:16.562Z,22.30
2017-07-30T06:41:44.878Z,22.50
2017-07-30T06:44:12.470Z,22.40
2017-07-30T06:46:40.013Z,22.50
2017-07-30T06:49:07.672Z,22.60
2017-07-30T06:51:35.258Z,22.60
2017-07-30T06:54:02.794Z,22.70
2017-07-30T06:56:30.777Z,22.70
2017-07-30T06:58:58.336Z,22.80
2017-07-30T07:01:25.877Z,22.90
2017-07-30T07:03:53.512Z,22.90
2017-07-30T07:06:21.039Z,23.00
2017-07-30T07:08:48.887Z,23.00
2017-07-30T07:11:17.008Z,23.10
2017-07-30T07:13:44.584Z,23.20
2017-07-30T07:16:12.132Z,23.30
2017-07-30T07:18:39.717Z,23.40
2017-07-30T07:21:07.373Z,23.40
2017-07-30T07:23:40.195Z,23.50
2017-07-30T07:26:07.746Z,23.60
2017-07-30T07:28:35.286Z,23.70
2017-07-30T07:31:02.891Z,23.80
2017-07-30T07:33:30.425Z,23.80
2017-07-30T07:35:57.996Z,23.90
2017-07-30T07:38:25.722Z,24.00
2017-07-30T07:40:53.292Z,24.10
2017-07-30T07:43:20.833Z,24.20
2017-07-30T07:45:48.800Z,24.30
2017-07-30T07:48:16.342Z,24.40
2017-07-30T07:50:43.918Z,24.40
2017-07-30T07:53:11.457Z,24.50
2017-07-30T07:55:40.315Z,24.60
2017-07-30T07:58:09.320Z,24.70
2017-07-30T08:00:37.007Z,24.70
2017-07-30T08:03:05.712Z,24.80
2017-07-30T08:05:33.349Z,24.80
2017-07-30T08:08:00.899Z,24.80
2017-07-30T08:10:28.940Z,24.80
2017-07-30T08:12:56.673Z,24.80
2017-07-30T08:15:24.250Z,24.70
2017-07-30T08:17:51.784Z,24.60
2017-07-30T08:20:20.122Z,24.50
2017-07-30T08:22:47.655Z,24.50
2017-07-30T08:25:15.246Z,24.60
2017-07-30T08:27:43.204Z,24.70
2017-07-30T08:30:10.785Z,24.80
2017-07-30T08:32:38.328Z,24.80
2017-07-30T08:35:05.869Z,24.90
2017-07-30T08:37:34.673Z,25.00
2017-07-30T08:40:02.249Z,25.10
2017-07-30T08:42:29.778Z,25.20
2017-07-30T08:44:57.312Z,25.20
2017-07-30T08:47:25.829Z,25.20
2017-07-30T08:49:53.360Z,25.10
2017-07-30T08:52:20.891Z,25.00
2017-07-30T08:54:49.245Z,25.10
2017-07-30T08:57:16.815Z,25.00
2017-07-30T08:59:44.351Z,25.10
2017-07-30T09:02:11.987Z,25.10
2017-07-30T09:04:39.530Z,25.10
2017-07-30T09:07:07.130Z,25.10
2017-07-30T09:09:34.673Z,25.10
2017-07-30T09:12:02.274Z,25.00
2017-07-30T09:14:30.046Z,25.00
2017-07-30T09:16:57.600Z,25.00
2017-07-30T09:19:26.590Z,25.10
2017-07-30T09:21:54.493Z,25.20
2017-07-30T09:24:22.788Z,25.10
2017-07-30T09:26:50.362Z,25.10
2017-07-30T09:29:17.940Z,25.10
2017-07-30T09:31:45.627Z,25.00
2017-07-30T09:34:13.160Z,25.00
2017-07-30T09:36:40.700Z,24.90
2017-07-30T09:39:09.560Z,25.00
2017-07-30T09:41:37.857Z,25.40
2017-07-30T09:44:05.428Z,25.30
2017-07-30T09:46:32.978Z,25.40
2017-07-30T09:49:00.696Z,25.30
2017-07-30T09:51:28.227Z,25.30
2017-07-30T09:53:55.804Z,25.30
2017-07-30T09:56:23.331Z,25.30
2017-07-30T09:58:50.989Z,25.30
2017-07-30T10:01:18.893Z,25.40
2017-07-30T10:03:46.425Z,25.50
2017-07-30T10:06:13.966Z,25.70
2017-07-30T10:08:41.540Z,25.90
2017-07-30T10:11:09.285Z,26.00
2017-07-30T10:13:37.617Z,26.10
2017-07-30T10:16:05.158Z,26.10
2017-07-30T10:18:32.826Z,26.20
2017-07-30T10:21:00.371Z,26.30
2017-07-30T10:23:27.941Z,26.30
2017-07-30T10:25:55.477Z,26.40
2017-07-30T10:28:23.070Z,26.60
2017-07-30T10:30:50.601Z,26.70
2017-07-30T10:33:18.482Z,26.70
2017-07-30T10:35:46.022Z,26.70
2017-07-30T10:38:13.564Z,26.70
2017-07-30T10:40:43.449Z,26.70
2017-07-30T10:43:10.983Z,26.70
2017-07-30T10:45:38.510Z,26.80
2017-07-30T10:48:06.848Z,26.70
2017-07-30T10:50:34.438Z,26.70
2017-07-30T10:53:02.737Z,26.80
2017-07-30T10:55:30.446Z,26.80
2017-07-30T10:57:57.978Z,26.90
2017-07-30T11:00:25.552Z,27.00
2017-07-30T11:02:53.085Z,27.10
2017-07-30T11:05:20.676Z,27.30
2017-07-30T11:07:49.678Z,27.30
2017-07-30T11:10:17.222Z,27.30
2017-07-30T11:12:45.048Z,27.30
2017-07-30T11:15:15.119Z,27.30
2017-07-30T11:17:42.654Z,27.30
2017-07-30T11:20:10.226Z,27.30
2017-07-30T11:22:37.757Z,27.40
2017-07-30T11:25:06.537Z,27.50
2017-07-30T11:27:34.882Z,27.70
2017-07-30T11:30:02.701Z,27.70
2017-07-30T11:32:30.228Z,27.80
2017-07-30T11:34:58.521Z,27.90
2017-07-30T11:37:27.148Z,28.00
2017-07-30T11:39:54.678Z,27.90
2017-07-30T11:42:22.204Z,28.00
2017-07-30T11:44:51.409Z,28.00
2017-07-30T11:47:19.714Z,28.20
2017-07-30T11:49:47.245Z,28.20
2017-07-30T11:52:15.581Z,28.40
2017-07-30T11:54:43.111Z,28.30
2017-07-30T11:57:10.680Z,28.40
2017-07-30T11:59:38.209Z,28.40
2017-07-30T12:02:06.665Z,28.30
2017-07-30T12:04:34.323Z,28.20
2017-07-30T12:07:01.853Z,28.20
2017-07-30T12:09:29.486Z,28.20
2017-07-30T12:11:57.144Z,28.10
2017-07-30T12:14:25.484Z,28.10
2017-07-30T12:16:53.012Z,28.10
2017-07-30T12:19:20.739Z,28.10
2017-07-30T12:21:49.456Z,28.00
2017-07-30T12:24:16.985Z,28.00
2017-07-30T12:26:45.281Z,28.00
2017-07-30T12:29:12.880Z,28.00
2017-07-30T12:31:42.035Z,28.00
2017-07-30T12:34:09.572Z,28.10
2017-07-30T12:36:37.101Z,28.00
2017-07-30T12:39:04.877Z,28.00
2017-07-30T12:41:32.454Z,27.90
2017-07-30T12:43:59.983Z,27.90
2017-07-30T12:46:27.563Z,27.80
2017-07-30T12:48:55.096Z,27.80
2017-07-30T12:51:22.981Z,27.80
2017-07-30T12:53:50.504Z,27.90
2017-07-30T12:56:18.034Z,27.90
2017-07-30T12:58:45.788Z,28.00
2017-07-30T13:01:13.363Z,27.90
2017-07-30T13:03:41.656Z,27.90
2017-07-30T13:06:09.225Z,27.90
2017-07-30T13:08:36.949Z,27.90
2017-07-30T13:11:04.473Z,27.90
2017-07-30T13:13:32.501Z,28.00
2017-07-30T13:16:00.897Z,28.00
2017-07-30T13:18:28.430Z,28.00
2017-07-30T13:20:57.042Z,28.20
2017-07-30T13:23:24.576Z,28.20
2017-07-30T13:25:52.873Z,28.30
2017-07-30T13:28:20.444Z,28.30
2017-07-30T13:30:48.019Z,28.40
2017-07-30T13:33:15.551Z,28.60
2017-07-30T13:35:43.274Z,28.70
2017-07-30T13:38:10.809Z,28.80
2017-07-30T13:40:38.350Z,28.80
2017-07-30T13:43:06.012Z,28.90
2017-07-30T13:45:33.536Z,29.00
2017-07-30T13:48:01.101Z,29.10
2017-07-30T13:50:29.580Z,29.20
2017-07-30T13:52:57.878Z,29.20
2017-07-30T13:55:25.784Z,29.20
2017-07-30T13:57:53.314Z,29.30
2017-07-30T14:00:20.857Z,29.30
2017-07-30T14:02:54.494Z,29.40
2017-07-30T14:05:22.022Z,29.40
2017-07-30T14:07:49.554Z,29.50
2017-07-30T14:10:17.240Z,29.60
2017-07-30T14:12:45.539Z,29.60
2017-07-30T14:15:13.421Z,29.60
2017-07-30T14:17:40.962Z,29.60
2017-07-30T14:20:08.537Z,29.70
2017-07-30T14:22:36.101Z,29.80
2017-07-30T14:25:03.642Z,29.90
2017-07-30T14:27:31.776Z,29.90
2017-07-30T14:29:59.308Z,29.90
2017-07-30T14:32:26.843Z,29.90
2017-07-30T14:34:54.414Z,29.90
2017-07-30T14:37:21.994Z,29.90
2017-07-30T14:39:49.642Z,29.90
2017-07-30T14:42:17.385Z,30.10
2017-07-30T14:44:44.917Z,30.20
2017-07-30T14:47:13.311Z,30.30
2017-07-30T14:49:40.846Z,30.30
2017-07-30T14:52:08.433Z,30.40
2017-07-30T14:54:35.969Z,30.40
2017-07-30T14:57:03.501Z,30.50
2017-07-30T14:59:31.349Z,30.50
2017-07-30T15:01:58.876Z,30.60
2017-07-30T15:04:26.522Z,30.60
2017-07-30T15:06:54.853Z,30.50
2017-07-30T15:09:22.421Z,30.50
2017-07-30T15:11:49.984Z,30.40
2017-07-30T15:14:17.530Z,30.30
2017-07-30T15:16:46.124Z,30.10
2017-07-30T15:19:13.662Z,29.90
2017-07-30T15:21:41.243Z,29.80
2017-07-30T15:24:08.776Z,29.70
2017-07-30T15:26:36.408Z,29.50
2017-07-30T15:29:03.932Z,29.50
2017-07-30T15:31:31.461Z,29.30
2017-07-30T15:33:59.306Z,29.00
2017-07-30T15:36:26.845Z,28.80
2017-07-30T15:38:54.417Z,28.70
2017-07-30T15:41:22.876Z,28.70
2017-07-30T15:43:50.421Z,28.70
2017-07-30T15:46:17.958Z,28.70
2017-07-30T15:48:45.613Z,28.80
2017-07-30T15:51:13.142Z,28.70
2017-07-30T15:53:40.732Z,28.70
2017-07-30T15:56:08.266Z,28.60
2017-07-30T15:58:36.901Z,28.70
2017-07-30T16:01:04.433Z,28.70
2017-07-30T16:03:31.960Z,28.60
2017-07-30T16:05:59.661Z,28.70
2017-07-30T16:08:27.189Z,28.90
2017-07-30T16:10:55.489Z,29.20
2017-07-30T16:13:23.066Z,29.20
2017-07-30T16:15:50.948Z,29.40
2017-07-30T16:18:19.286Z,29.60
2017-07-30T16:20:47.579Z,30.00
2017-07-30T16:23:20.915Z,30.00
2017-07-30T16:25:48.450Z,30.10
2017-07-30T16:28:15.976Z,30.20
2017-07-30T16:30:44.318Z,29.90
2017-07-30T16:33:11.880Z,29.90
2017-07-30T16:35:39.419Z,29.70
2017-07-30T16:38:07.138Z,29.60
2017-07-30T16:40:35.429Z,29.80
2017-07-30T16:43:03.437Z,29.80
2017-07-30T16:45:30.975Z,30.10
2017-07-30T16:47:58.506Z,30.30
2017-07-30T16:50:26.099Z,30.60
2017-07-30T16:52:53.625Z,30.60
2017-07-30T16:55:21.932Z,30.30
2017-07-30T16:57:49.582Z,30.30
2017-07-30T17:00:17.596Z,30.10
2017-07-30T17:02:45.121Z,29.80
2017-07-30T17:05:12.649Z,29.50
2017-07-30T17:07:41.283Z,29.10
2017-07-30T17:10:08.813Z,29.10
2017-07-30T17:15:32.748Z,28.70
2017-07-30T17:18:00.320Z,28.30
2017-07-30T17:20:28.081Z,28.10
2017-07-30T17:22:55.648Z,27.90
2017-07-30T17:25:23.185Z,27.70
2017-07-30T17:27:50.979Z,27.50
2017-07-30T17:30:18.514Z,27.30
2017-07-30T17:32:46.380Z,27.30
2017-07-30T17:35:13.915Z,27.20
2017-07-30T17:37:41.448Z,27.00
2017-07-30T17:40:10.402Z,26.90
2017-07-30T17:42:38.103Z,26.70
2017-07-30T17:45:06.751Z,26.60
2017-07-30T17:47:34.289Z,26.60
2017-07-30T17:50:01.828Z,26.50
2017-07-30T17:52:29.476Z,26.50
2017-07-30T17:54:57.024Z,26.40
2017-07-30T17:57:24.950Z,26.40
2017-07-30T17:59:52.481Z,26.20
2017-07-30T18:02:20.024Z,26.00
2017-07-30T18:04:48.045Z,26.00
2017-07-30T18:07:15.577Z,25.90
2017-07-30T18:09:43.105Z,25.80
2017-07-30T18:12:11.488Z,25.60
2017-07-30T18:14:39.789Z,25.50
2017-07-30T18:17:07.694Z,25.50
2017-07-30T18:19:35.225Z,25.50
2017-07-30T18:22:02.757Z,25.40
2017-07-30T18:24:31.093Z,25.30
2017-07-30T18:26:58.632Z,25.20
2017-07-30T18:29:26.215Z,25.20
2017-07-30T18:31:53.751Z,25.10
2017-07-30T18:34:21.488Z,25.00
2017-07-30T18:36:49.065Z,24.90
2017-07-30T18:39:16.593Z,24.90
2017-07-30T18:41:44.937Z,24.70
2017-07-30T18:44:12.465Z,24.70
2017-07-30T18:46:40.565Z,24.60
2017-07-30T18:49:08.109Z,24.50
2017-07-30T18:51:35.650Z,24.40
2017-07-30T18:54:03.289Z,24.40
2017-07-30T18:56:31.590Z,24.20
2017-07-30T18:58:59.166Z,24.20
2017-07-30T19:01:26.702Z,24.10
2017-07-30T19:03:54.705Z,24.00
2017-07-30T19:06:25.092Z,24.00
2017-07-30T19:08:52.629Z,23.80
2017-07-30T19:11:21.594Z,23.70
2017-07-30T19:13:49.133Z,23.70
2017-07-30T19:16:16.679Z,23.60
2017-07-30T19:18:44.257Z,23.50
2017-07-30T19:21:11.789Z,23.40
2017-07-30T19:23:39.334Z,23.40
2017-07-30T19:26:09.212Z,23.20
2017-07-30T19:28:36.750Z,23.20
2017-07-30T19:31:04.330Z,23.10
2017-07-30T19:33:31.873Z,23.00
2017-07-30T19:36:01.226Z,22.90
2017-07-30T19:38:29.531Z,22.70
2017-07-30T19:40:57.091Z,22.70
2017-07-30T19:43:24.997Z,22.70
2017-07-30T19:45:52.535Z,22.60
2017-07-30T19:48:20.070Z,22.50
2017-07-30T19:50:47.650Z,22.40
2017-07-30T19:53:15.229Z,22.30
2017-07-30T19:55:42.780Z,22.10
2017-07-30T19:58:10.562Z,22.10
2017-07-30T20:00:38.090Z,22.00
2017-07-30T20:03:05.674Z,21.90
2017-07-30T20:05:33.376Z,21.90
2017-07-30T20:08:00.963Z,21.80
2017-07-30T20:10:28.512Z,21.70
2017-07-30T20:12:56.437Z,21.60
2017-07-30T20:15:24.277Z,21.50
2017-07-30T20:17:52.093Z,21.50
2017-07-30T20:20:19.748Z,21.40
2017-07-30T20:22:47.325Z,21.30
2017-07-30T20:25:15.633Z,21.20
2017-07-30T20:27:43.207Z,21.20
2017-07-30T20:30:10.746Z,21.20
2017-07-30T20:32:38.628Z,21.10
2017-07-30T20:35:06.476Z,21.00
2017-07-30T20:37:34.023Z,21.00
2017-07-30T20:40:02.571Z,20.80
2017-07-30T20:42:30.114Z,20.80
2017-07-30T20:44:57.790Z,20.80
2017-07-30T20:47:26.325Z,20.70
2017-07-30T20:49:53.861Z,20.60
2017-07-30T20:52:22.382Z,20.30
2017-07-30T20:54:49.976Z,20.30
2017-07-30T20:57:17.509Z,20.30
2017-07-30T20:59:45.098Z,20.20
2017-07-30T21:02:12.681Z,20.20
2017-07-30T21:04:40.819Z,20.20
2017-07-30T21:07:08.393Z,20.20
2017-07-30T21:09:36.237Z,20.10
2017-07-30T21:12:04.143Z,20.10
2017-07-30T21:14:33.720Z,20.00
2017-07-30T21:17:02.085Z,19.80
2017-07-30T21:19:29.732Z,19.80
2017-07-30T21:21:57.350Z,19.80
2017-07-30T21:24:25.509Z,19.70
2017-07-30T21:26:53.361Z,19.60
2017-07-30T21:29:20.938Z,19.50
2017-07-30T21:31:48.722Z,19.50
2017-07-30T21:34:16.302Z,19.50
2017-07-30T21:36:44.700Z,19.40
2017-07-30T21:39:12.518Z,19.30
2017-07-30T21:41:40.067Z,19.30
2017-07-30T21:44:07.936Z,19.30
2017-07-30T21:46:35.474Z,19.30
2017-07-30T21:49:03.061Z,19.20
2017-07-30T21:51:30.600Z,19.20
2017-07-30T21:53:58.957Z,19.10
2017-07-30T21:56:26.496Z,19.10
2017-07-30T21:58:54.848Z,19.10
2017-07-30T22:01:22.394Z,19.10
2017-07-30T22:03:50.002Z,19.10
2017-07-30T22:06:17.882Z,19.00
2017-07-30T22:08:45.436Z,18.90
2017-07-30T22:11:13.034Z,18.90
2017-07-30T22:13:40.568Z,18.80
2017-07-30T22:16:08.153Z,18.80
2017-07-30T22:18:35.693Z,18.80
2017-07-30T22:21:03.280Z,18.80
2017-07-30T22:23:30.825Z,18.70
2017-07-30T22:25:58.788Z,18.70
2017-07-30T22:28:26.325Z,18.60
2017-07-30T22:30:53.868Z,18.60
2017-07-30T22:33:22.225Z,18.50
2017-07-30T22:35:49.770Z,18.40
2017-07-30T22:38:17.746Z,18.40
2017-07-30T22:40:45.287Z,18.30
2017-07-30T22:43:12.837Z,18.30
2017-07-30T22:45:40.565Z,18.30
2017-07-30T22:48:08.874Z,18.20
2017-07-30T22:50:36.454Z,18.20
2017-07-30T22:53:04.006Z,18.20
2017-07-30T22:55:31.598Z,18.20
2017-07-30T22:57:59.143Z,18.20
2017-07-30T23:00:27.043Z,18.10
2017-07-30T23:02:55.361Z,18.10
2017-07-30T23:05:22.898Z,18.00
2017-07-30T23:07:51.245Z,18.00
2017-07-30T23:10:18.837Z,17.90
2017-07-30T23:12:47.482Z,17.80
2017-07-30T23:15:15.189Z,17.80
2017-07-30T23:17:42.741Z,17.80
2017-07-30T23:20:10.321Z,17.80
2017-07-30T23:22:37.860Z,17.70
2017-07-30T23:25:06.205Z,17.60
2017-07-30T23:27:33.760Z,17.50
2017-07-30T23:30:01.730Z,17.50
2017-07-30T23:32:29.260Z,17.50
2017-07-30T23:34:56.805Z,17.50
2017-07-30T23:37:24.531Z,17.40
2017-07-30T23:39:52.076Z,17.30
2017-07-30T23:42:19.859Z,17.30
2017-07-30T23:44:47.401Z,17.30
2017-07-30T23:47:15.100Z,17.20
2017-07-30T23:49:43.410Z,17.20
2017-07-30T23:52:11.088Z,17.20
2017-07-30T23:54:38.629Z,17.20
2017-07-30T23:57:06.169Z,17.10
2017-07-30T23:59:34.920Z,17.10
